createdAt,value
2022-07-25T00:03:38.344Z,65.86
2022-07-25T00:08:42.122Z,62.08
2022-07-25T00:13:44.997Z,59.40
2022-07-25T00:18:47.876Z,58.95
2022-07-25T00:23:50.669Z,63.84
2022-07-25T00:28:53.510Z,64.27
2022-07-25T00:33:56.344Z,60.51
2022-07-25T00:38:59.183Z,58.42
2022-07-25T00:44:02.309Z,63.44
2022-07-25T00:49:05.546Z,64.39
2022-07-25T00:54:09.107Z,60.78
2022-07-25T00:59:12.566Z,58.61
2022-07-25T01:04:16.373Z,63.11
2022-07-25T01:09:20.677Z,64.56
2022-07-25T01:14:23.508Z,60.96
2022-07-25T01:19:26.405Z,58.87
2022-07-25T01:24:29.731Z,59.85
2022-07-25T01:29:32.644Z,65.22
2022-07-25T01:34:35.450Z,61.86
2022-07-25T01:39:38.305Z,58.82
2022-07-25T01:44:41.264Z,61.33
2022-07-25T01:49:44.771Z,66.17
2022-07-25T01:54:47.562Z,61.97
2022-07-25T01:59:50.803Z,59.66
2022-07-25T02:04:53.870Z,58.97
2022-07-25T02:09:57.194Z,64.47
2022-07-25T02:15:02.872Z,63.57
2022-07-25T02:20:06.668Z,60.24
2022-07-25T02:25:09.769Z,58.49
2022-07-25T02:30:12.884Z,62.75
2022-07-25T02:35:15.792Z,65.38
2022-07-25T02:40:18.871Z,61.09
2022-07-25T02:45:21.687Z,58.53
2022-07-25T02:50:25.432Z,62.81
2022-07-25T02:55:28.415Z,65.04
2022-07-25T03:00:31.261Z,60.84
2022-07-25T03:05:34.265Z,58.77
2022-07-25T03:10:37.125Z,63.74
2022-07-25T03:15:40.028Z,64.15
2022-07-25T03:20:42.902Z,60.41
2022-07-25T03:25:45.793Z,58.51
2022-07-25T03:30:48.635Z,62.79
2022-07-25T03:35:51.552Z,65.11
2022-07-25T03:40:54.394Z,61.22
2022-07-25T03:45:57.336Z,58.44
2022-07-25T03:51:03.556Z,61.74
2022-07-25T03:56:09.362Z,65.29
2022-07-25T04:01:12.264Z,60.69
2022-07-25T04:06:15.310Z,58.37
2022-07-25T04:11:18.433Z,62.44
2022-07-25T04:16:22.664Z,64.29
2022-07-25T04:21:27.007Z,59.39
2022-07-25T04:26:29.862Z,58.98
2022-07-25T04:31:32.784Z,60.92
2022-07-25T04:36:35.657Z,48.71
2022-07-25T04:41:38.573Z,42.53
2022-07-25T04:46:41.436Z,37.35
2022-07-25T04:51:44.236Z,33.36
2022-07-25T04:56:46.891Z,30.29
2022-07-25T05:01:49.852Z,28.09
2022-07-25T05:06:52.821Z,26.93
2022-07-25T05:11:56.500Z,25.94
2022-07-25T05:16:59.553Z,25.06
2022-07-25T05:22:03.645Z,27.37
2022-07-25T05:27:06.535Z,31.96
2022-07-25T05:32:09.423Z,36.52
2022-07-25T05:37:12.393Z,40.18
2022-07-25T05:42:15.287Z,43.46
2022-07-25T05:47:18.318Z,45.97
2022-07-25T05:52:21.240Z,47.36
2022-07-25T05:57:24.136Z,48.98
2022-07-25T06:02:27.041Z,49.37
2022-07-25T06:07:30.055Z,50.32
2022-07-25T06:12:33.798Z,51.38
2022-07-25T06:17:39.775Z,51.50
2022-07-25T06:22:43.282Z,52.32
2022-07-25T06:27:46.066Z,51.87
2022-07-25T06:32:50.114Z,51.64
2022-07-25T06:37:53.160Z,51.10
2022-07-25T06:42:56.021Z,50.64
2022-07-25T06:48:00.150Z,47.04
2022-07-25T06:53:03.044Z,39.97
2022-07-25T06:58:05.892Z,34.51
2022-07-25T07:03:08.789Z,31.62
2022-07-25T07:08:11.790Z,28.32
2022-07-25T07:13:23.855Z,26.32
2022-07-25T07:18:27.562Z,26.67
2022-07-25T07:23:30.492Z,24.36
2022-07-25T07:28:35.554Z,23.84
2022-07-25T07:33:38.545Z,23.69
2022-07-25T07:38:41.703Z,22.95
2022-07-25T07:43:44.532Z,22.62
2022-07-25T07:48:47.383Z,21.66
2022-07-25T07:54:08.837Z,22.49
2022-07-25T07:59:12.385Z,21.71
2022-07-25T08:04:15.912Z,21.56
2022-07-25T08:09:19.765Z,21.14
2022-07-25T08:14:22.640Z,20.45
2022-07-25T08:19:25.461Z,21.24
2022-07-25T08:24:29.854Z,21.11
2022-07-25T08:29:32.935Z,22.11
2022-07-25T08:34:35.847Z,22.86
2022-07-25T08:39:38.829Z,22.40
2022-07-25T08:44:44.138Z,23.01
2022-07-25T08:49:47.037Z,23.70
2022-07-25T08:54:50.867Z,24.08
2022-07-25T08:59:53.840Z,23.38
2022-07-25T09:04:58.912Z,24.88
2022-07-25T09:10:20.418Z,24.85
2022-07-25T09:15:37.971Z,24.28
2022-07-25T09:20:46.107Z,25.48
2022-07-25T09:25:49.038Z,24.39
2022-07-25T09:30:56.818Z,24.61
2022-07-25T09:36:11.918Z,26.36
2022-07-25T09:41:14.709Z,28.92
2022-07-25T09:46:17.618Z,30.15
2022-07-25T09:51:20.468Z,32.25
2022-07-25T09:56:23.292Z,32.85
2022-07-25T10:01:34.904Z,33.40
2022-07-25T10:07:09.935Z,33.97
2022-07-25T10:12:15.805Z,34.85
2022-07-25T10:17:22.089Z,35.56
2022-07-25T10:22:55.316Z,34.87
2022-07-25T10:28:01.373Z,35.86
2022-07-25T10:33:16.330Z,35.87
2022-07-25T10:38:24.544Z,36.24
2022-07-25T10:43:28.207Z,36.45
2022-07-25T10:48:33.114Z,36.83
2022-07-25T10:53:35.889Z,37.61
2022-07-25T10:58:54.143Z,37.67
2022-07-25T11:04:14.568Z,38.45
2022-07-25T11:09:27.699Z,38.55
2022-07-25T11:14:32.992Z,38.47
2022-07-25T11:19:35.967Z,38.13
2022-07-25T11:24:44.565Z,39.07
2022-07-25T11:29:47.512Z,38.64
2022-07-25T11:34:54.521Z,39.05
2022-07-25T11:39:57.579Z,39.36
2022-07-25T11:45:01.087Z,39.79
2022-07-25T11:50:05.422Z,39.51
2022-07-25T11:55:14.767Z,39.39
2022-07-25T12:00:20.972Z,38.95
2022-07-25T12:05:32.376Z,39.23
2022-07-25T12:10:36.643Z,39.37
2022-07-25T12:15:41.183Z,38.82
2022-07-25T12:20:44.606Z,38.53
2022-07-25T12:25:47.584Z,38.90
2022-07-25T12:30:56.329Z,39.55
2022-07-25T12:36:05.270Z,39.42
2022-07-25T12:41:15.920Z,39.14
2022-07-25T12:46:21.681Z,39.79
2022-07-25T12:51:24.674Z,40.35
2022-07-25T12:56:27.552Z,40.33
2022-07-25T13:01:30.482Z,40.14
2022-07-25T13:06:38.479Z,39.93
2022-07-25T13:11:42.546Z,39.72
2022-07-25T13:16:47.367Z,39.74
2022-07-25T13:21:51.445Z,40.21
2022-07-25T13:26:54.342Z,39.73
2022-07-25T13:31:57.144Z,39.42
2022-07-25T13:37:00.101Z,39.48
2022-07-25T13:42:03.607Z,39.42
2022-07-25T13:47:06.527Z,38.90
2022-07-25T13:52:09.509Z,39.22
2022-07-25T13:57:12.634Z,39.23
2022-07-25T14:02:15.632Z,39.59
2022-07-25T14:07:18.718Z,39.48
2022-07-25T14:12:21.742Z,39.28
2022-07-25T14:17:29.738Z,39.08
2022-07-25T14:22:33.351Z,38.96
2022-07-25T14:27:36.605Z,39.36
2022-07-25T14:32:39.432Z,38.98
2022-07-25T14:37:42.452Z,38.97
2022-07-25T14:42:47.350Z,38.91
2022-07-25T14:47:50.190Z,38.80
2022-07-25T14:52:53.830Z,39.21
2022-07-25T14:57:58.022Z,39.32
2022-07-25T15:03:01.846Z,39.46
2022-07-25T15:08:06.333Z,39.57
2022-07-25T15:13:32.572Z,39.40
2022-07-25T15:18:32.074Z,39.27
2022-07-25T15:23:34.912Z,39.67
2022-07-25T15:28:38.461Z,39.69
2022-07-25T15:33:41.332Z,39.67
2022-07-25T15:38:46.057Z,39.37
2022-07-25T15:43:48.881Z,39.29
2022-07-25T15:48:52.314Z,39.23
2022-07-25T15:53:56.041Z,39.71
2022-07-25T15:58:59.039Z,39.87
2022-07-25T16:04:01.872Z,39.74
2022-07-25T16:09:05.156Z,39.72
2022-07-25T16:14:10.653Z,40.10
2022-07-25T16:19:13.306Z,40.19
2022-07-25T16:24:16.212Z,40.26
2022-07-25T16:29:19.052Z,40.45
2022-07-25T16:34:28.901Z,40.67
2022-07-25T16:39:32.295Z,40.68
2022-07-25T16:44:35.156Z,40.74
2022-07-25T16:49:37.942Z,40.84
2022-07-25T16:54:40.793Z,41.00
2022-07-25T16:59:44.023Z,40.95
2022-07-25T17:04:47.546Z,41.28
2022-07-25T17:09:50.527Z,41.58
2022-07-25T17:14:53.965Z,41.90
2022-07-25T17:20:00.019Z,42.15
2022-07-25T17:25:03.383Z,42.47
2022-07-25T17:30:10.416Z,42.72
2022-07-25T17:35:13.804Z,43.03
2022-07-25T17:40:16.820Z,43.40
2022-07-25T17:45:19.652Z,43.58
2022-07-25T17:50:29.464Z,43.97
2022-07-25T17:55:35.543Z,44.37
2022-07-25T18:00:41.613Z,44.72
2022-07-25T18:05:44.523Z,45.02
2022-07-25T18:10:49.801Z,45.58
2022-07-25T18:15:52.816Z,45.87
2022-07-25T18:20:55.869Z,46.11
2022-07-25T18:26:00.796Z,46.45
2022-07-25T18:31:04.866Z,46.63
2022-07-25T18:36:08.135Z,47.23
2022-07-25T18:46:34.241Z,48.35
2022-07-25T18:51:37.844Z,48.59
2022-07-25T18:56:40.637Z,49.39
2022-07-25T19:01:43.583Z,49.74
2022-07-25T19:06:46.667Z,50.27
2022-07-25T19:11:49.585Z,50.52
2022-07-25T19:16:53.753Z,51.44
2022-07-25T19:21:56.767Z,51.87
2022-07-25T19:26:59.735Z,52.21
2022-07-25T19:32:03.023Z,52.66
2022-07-25T19:37:05.849Z,53.19
2022-07-25T19:42:10.796Z,53.57
2022-07-25T19:47:14.247Z,53.95
2022-07-25T19:52:17.815Z,54.45
2022-07-25T19:57:22.142Z,54.22
2022-07-25T20:02:25.017Z,54.81
2022-07-25T20:07:28.190Z,55.34
2022-07-25T20:12:34.119Z,55.49
2022-07-25T20:17:37.788Z,56.18
2022-07-25T20:22:42.136Z,56.58
2022-07-25T20:27:45.951Z,56.23
2022-07-25T20:32:49.235Z,56.59
2022-07-25T20:37:52.129Z,56.10
2022-07-25T20:42:55.787Z,56.50
2022-07-25T20:48:01.930Z,56.56
2022-07-25T20:53:06.478Z,57.41
2022-07-25T20:58:10.016Z,57.28
2022-07-25T21:03:12.913Z,57.58
2022-07-25T21:08:15.850Z,57.87
2022-07-25T21:13:18.836Z,57.74
2022-07-25T21:18:21.759Z,57.99
2022-07-25T21:23:26.600Z,59.00
2022-07-25T21:28:29.536Z,59.05
2022-07-25T21:33:32.657Z,59.45
2022-07-25T21:38:37.185Z,59.66
2022-07-25T21:43:41.103Z,60.44
2022-07-25T21:49:02.673Z,60.24
2022-07-25T21:54:07.160Z,59.91
2022-07-25T21:59:10.562Z,60.77
2022-07-25T22:04:14.366Z,60.64
2022-07-25T22:09:17.457Z,61.04
2022-07-25T22:14:20.608Z,64.16
2022-07-25T22:19:23.809Z,63.20
2022-07-25T22:24:27.320Z,55.74
2022-07-25T22:29:30.659Z,56.55
2022-07-25T22:34:34.156Z,57.96
2022-07-25T22:39:37.240Z,58.82
2022-07-25T22:44:40.291Z,59.67
2022-07-25T22:49:43.380Z,60.45
2022-07-25T22:54:46.359Z,61.38
2022-07-25T22:59:50.435Z,61.66
2022-07-25T23:04:53.377Z,66.64
2022-07-25T23:09:56.401Z,60.08
2022-07-25T23:14:59.516Z,55.63
2022-07-25T23:20:02.742Z,57.64
2022-07-25T23:25:07.220Z,58.92
2022-07-25T23:30:10.710Z,59.86
2022-07-25T23:35:13.633Z,60.77
2022-07-25T23:40:16.514Z,60.74
2022-07-25T23:45:22.083Z,66.21
2022-07-25T23:50:36.928Z,60.19
2022-07-25T23:55:39.836Z,55.37
